createdAt,value
2023-01-08T00:01:32.523Z,15.95
2023-01-08T00:04:00.117Z,18.35
2023-01-08T00:06:27.885Z,18.65
2023-01-08T00:08:55.488Z,17.52
2023-01-08T00:11:23.035Z,15.70
2023-01-08T00:13:51.310Z,14.23
2023-01-08T00:16:20.120Z,14.90
2023-01-08T00:18:48.099Z,15.43
2023-01-08T00:21:15.731Z,17.20
2023-01-08T00:23:43.185Z,14.65
2023-01-08T00:26:11.323Z,13.60
2023-01-08T00:28:39.753Z,13.80
2023-01-08T00:31:09.647Z,13.30
2023-01-08T00:33:38.469Z,13.73
2023-01-08T00:36:11.133Z,12.15
2023-01-08T00:38:38.732Z,13.15
2023-01-08T00:41:06.522Z,12.77
2023-01-08T00:43:34.915Z,13.85
2023-01-08T00:46:02.598Z,12.63
2023-01-08T00:48:31.218Z,14.90
2023-01-08T00:50:58.747Z,16.00
2023-01-08T00:53:26.301Z,17.27
2023-01-08T00:56:04.127Z,13.73
2023-01-08T00:58:32.039Z,15.05
2023-01-08T01:00:59.616Z,15.82
2023-01-08T01:03:27.467Z,17.13
2023-01-08T01:06:05.913Z,16.35
2023-01-08T01:08:34.664Z,16.58
2023-01-08T01:11:10.054Z,16.35
2023-01-08T01:13:37.626Z,17.80
2023-01-08T01:16:05.408Z,16.23
2023-01-08T01:18:32.971Z,18.00
2023-01-08T01:21:00.586Z,17.55
2023-01-08T01:23:28.106Z,17.17
2023-01-08T01:25:55.713Z,17.05
2023-01-08T01:28:23.246Z,16.52
2023-01-08T01:30:57.227Z,15.68
2023-01-08T01:33:24.882Z,17.65
2023-01-08T01:36:03.019Z,16.65
2023-01-08T01:38:30.922Z,14.60
2023-01-08T01:40:58.891Z,17.73
2023-01-08T01:43:43.603Z,14.25
2023-01-08T01:46:20.320Z,15.77
2023-01-08T01:48:51.435Z,17.05
2023-01-08T01:51:20.624Z,16.25
2023-01-08T01:53:50.017Z,18.40
2023-01-08T01:56:17.527Z,16.15
2023-01-08T01:58:44.985Z,18.40
2023-01-08T02:01:13.356Z,20.65
2023-01-08T02:03:40.916Z,22.50
2023-01-08T02:06:35.622Z,20.58
2023-01-08T02:09:07.888Z,23.13
2023-01-08T02:11:47.458Z,27.35
2023-01-08T02:15:01.695Z,25.33
2023-01-08T02:17:38.761Z,23.70
2023-01-08T02:20:11.715Z,23.42
2023-01-08T02:22:51.586Z,23.80
2023-01-08T02:25:51.102Z,26.83
2023-01-08T02:28:19.264Z,25.10
2023-01-08T02:30:47.863Z,25.02
2023-01-08T02:33:15.648Z,22.42
2023-01-08T02:35:51.948Z,25.45
2023-01-08T02:38:19.731Z,20.92
2023-01-08T02:40:47.174Z,22.50
2023-01-08T02:43:22.015Z,24.98
2023-01-08T02:45:58.601Z,27.05
2023-01-08T02:48:49.543Z,27.00
2023-01-08T02:51:24.355Z,27.38
2023-01-08T02:53:58.546Z,28.90
2023-01-08T02:56:32.457Z,28.02
2023-01-08T02:59:00.947Z,26.65
2023-01-08T03:01:29.768Z,30.10
2023-01-08T03:04:04.232Z,29.73
2023-01-08T03:06:32.383Z,31.42
2023-01-08T03:09:00.666Z,27.65
2023-01-08T03:11:36.165Z,31.90
2023-01-08T03:14:37.780Z,29.52
2023-01-08T03:17:21.268Z,31.45
2023-01-08T03:19:59.824Z,26.92
2023-01-08T03:22:28.663Z,28.02
2023-01-08T03:24:59.484Z,29.98
2023-01-08T03:27:32.770Z,30.90
2023-01-08T03:30:00.764Z,30.85
2023-01-08T03:32:31.251Z,29.77
2023-01-08T03:35:00.853Z,28.75
2023-01-08T03:37:33.912Z,30.00
2023-01-08T03:40:07.834Z,28.02
2023-01-08T03:42:35.636Z,27.58
2023-01-08T03:45:04.054Z,30.95
2023-01-08T03:47:33.782Z,30.80
2023-01-08T03:50:04.167Z,26.92
2023-01-08T03:52:33.182Z,26.98
2023-01-08T03:55:00.731Z,28.33
2023-01-08T03:57:28.629Z,32.13
2023-01-08T03:59:56.095Z,27.33
2023-01-08T04:02:23.732Z,27.27
2023-01-08T04:04:51.294Z,28.10
2023-01-08T04:07:19.179Z,28.45
2023-01-08T04:09:47.262Z,28.17
2023-01-08T04:12:14.802Z,27.50
2023-01-08T04:14:42.316Z,25.85
2023-01-08T04:17:13.507Z,26.63
2023-01-08T04:19:41.246Z,22.65
2023-01-08T04:22:11.521Z,27.40
2023-01-08T04:24:39.027Z,23.30
2023-01-08T04:27:06.547Z,25.70
2023-01-08T04:29:34.140Z,26.48
2023-01-08T04:32:01.631Z,27.60
2023-01-08T04:34:29.316Z,27.10
2023-01-08T04:36:56.896Z,27.88
2023-01-08T04:39:24.462Z,27.40
2023-01-08T04:41:51.929Z,27.35
2023-01-08T04:44:19.554Z,27.35
2023-01-08T04:46:47.085Z,29.75
2023-01-08T04:49:14.903Z,27.27
2023-01-08T04:51:42.490Z,29.60
2023-01-08T04:54:10.142Z,24.60
2023-01-08T04:56:37.659Z,29.30
2023-01-08T04:59:05.637Z,28.15
2023-01-08T05:01:33.254Z,28.40
2023-01-08T05:04:02.954Z,30.33
2023-01-08T05:06:31.811Z,30.38
2023-01-08T05:08:59.288Z,28.77
2023-01-08T05:11:26.869Z,31.33
2023-01-08T05:13:54.405Z,30.77
2023-01-08T05:16:22.184Z,33.13
2023-01-08T05:18:50.465Z,30.08
2023-01-08T05:21:18.554Z,31.88
2023-01-08T05:23:50.305Z,32.80
2023-01-08T05:26:19.453Z,30.63
2023-01-08T05:28:47.285Z,31.67
2023-01-08T05:31:15.593Z,33.85
2023-01-08T05:33:43.455Z,35.72
2023-01-08T05:40:23.647Z,36.88
2023-01-08T05:42:51.176Z,37.08
2023-01-08T05:45:18.590Z,31.48
2023-01-08T05:47:46.173Z,31.55
2023-01-08T05:50:13.690Z,30.42
2023-01-08T05:52:41.381Z,32.00
2023-01-08T05:55:09.327Z,28.65
2023-01-08T05:57:37.068Z,30.55
2023-01-08T06:00:09.945Z,30.17
2023-01-08T06:02:40.356Z,31.00
2023-01-08T06:05:08.252Z,33.63
2023-01-08T06:07:35.919Z,30.65
2023-01-08T06:10:03.647Z,33.55
2023-01-08T06:12:31.077Z,33.53
2023-01-08T06:14:58.688Z,34.17
2023-01-08T06:17:26.250Z,32.95
2023-01-08T06:19:53.856Z,32.22
2023-01-08T06:22:21.365Z,32.13
2023-01-08T06:24:48.875Z,35.75
2023-01-08T06:27:16.403Z,38.47
2023-01-08T06:29:43.953Z,37.63
2023-01-08T06:32:11.472Z,37.67
2023-01-08T06:34:38.959Z,32.72
2023-01-08T06:37:06.425Z,33.13
2023-01-08T06:39:33.931Z,33.17
2023-01-08T06:42:01.475Z,39.25
2023-01-08T06:44:28.989Z,37.30
2023-01-08T06:46:59.259Z,35.03
2023-01-08T06:49:28.274Z,36.17
2023-01-08T06:51:55.781Z,33.95
2023-01-08T06:54:23.287Z,33.95
2023-01-08T06:56:53.896Z,32.75
2023-01-08T06:59:22.474Z,36.33
2023-01-08T07:01:51.031Z,35.58
2023-01-08T07:04:19.831Z,33.45
2023-01-08T07:06:47.887Z,37.25
2023-01-08T07:09:16.289Z,35.78
2023-01-08T07:11:43.799Z,38.40
2023-01-08T07:14:11.690Z,35.13
2023-01-08T07:16:39.385Z,32.55
2023-01-08T07:19:06.993Z,32.00
2023-01-08T07:21:34.564Z,32.80
2023-01-08T07:24:02.065Z,31.60
2023-01-08T07:26:29.571Z,34.15
2023-01-08T07:28:57.173Z,31.17
2023-01-08T07:31:24.944Z,29.42
2023-01-08T07:33:52.549Z,28.02
2023-01-08T07:36:22.627Z,27.90
2023-01-08T07:38:50.587Z,25.30
2023-01-08T07:41:18.542Z,29.75
2023-01-08T07:43:48.390Z,26.58
2023-01-08T07:46:16.587Z,25.02
2023-01-08T07:48:44.273Z,26.05
2023-01-08T07:51:11.913Z,21.83
2023-01-08T07:53:39.628Z,25.23
2023-01-08T07:56:10.134Z,24.27
2023-01-08T07:58:38.253Z,21.05
2023-01-08T08:01:10.189Z,23.98
2023-01-08T08:03:41.611Z,20.52
2023-01-08T08:06:09.651Z,20.77
2023-01-08T08:08:37.159Z,24.58
2023-01-08T08:11:04.812Z,18.33
2023-01-08T08:13:32.442Z,21.75
2023-01-08T08:16:04.285Z,19.88
2023-01-08T08:18:31.951Z,19.52
2023-01-08T08:20:59.452Z,21.88
2023-01-08T08:23:27.081Z,19.83
2023-01-08T08:25:54.593Z,18.48
2023-01-08T08:28:22.221Z,20.55
2023-01-08T08:30:51.717Z,20.10
2023-01-08T08:33:19.384Z,21.55
2023-01-08T08:35:51.236Z,19.25
2023-01-08T08:38:18.960Z,17.40
2023-01-08T08:40:46.491Z,20.17
2023-01-08T08:43:14.072Z,16.52
2023-01-08T08:45:41.629Z,18.23
2023-01-08T08:48:09.728Z,18.55
2023-01-08T08:50:38.612Z,20.85
2023-01-08T08:53:07.194Z,19.08
2023-01-08T08:55:34.989Z,20.65
2023-01-08T08:58:13.405Z,20.15
2023-01-08T09:00:42.338Z,19.98
2023-01-08T09:03:14.626Z,21.23
2023-01-08T09:05:45.498Z,21.90
2023-01-08T09:08:13.220Z,19.73
2023-01-08T09:10:42.448Z,20.50
2023-01-08T09:13:10.511Z,21.88
2023-01-08T09:15:38.498Z,18.55
2023-01-08T09:18:06.063Z,18.52
2023-01-08T09:20:33.759Z,20.33
2023-01-08T09:23:03.335Z,18.80
2023-01-08T09:25:31.489Z,20.48
2023-01-08T09:28:04.460Z,15.98
2023-01-08T09:30:32.804Z,15.93
2023-01-08T09:33:02.916Z,19.27
2023-01-08T09:35:34.355Z,17.88
2023-01-08T09:38:01.940Z,18.30
2023-01-08T09:40:35.731Z,19.05
2023-01-08T09:45:33.043Z,20.23
2023-01-08T09:48:04.723Z,17.35
2023-01-08T09:50:33.188Z,18.92
2023-01-08T09:53:00.816Z,17.85
2023-01-08T09:55:32.666Z,16.58
2023-01-08T09:58:03.027Z,17.23
2023-01-08T10:00:34.113Z,17.63
2023-01-08T10:03:01.826Z,17.02
2023-01-08T10:05:30.069Z,14.70
2023-01-08T10:07:57.999Z,16.52
2023-01-08T10:10:32.695Z,14.45
2023-01-08T10:13:00.695Z,12.02
2023-01-08T10:15:28.211Z,14.80
2023-01-08T10:17:58.387Z,13.00
2023-01-08T10:20:26.887Z,12.27
2023-01-08T10:22:55.129Z,10.43
2023-01-08T10:25:26.167Z,13.23
2023-01-08T10:28:03.488Z,13.15
2023-01-08T10:30:30.881Z,11.85
2023-01-08T10:33:04.589Z,13.98
2023-01-08T10:35:35.933Z,13.52
2023-01-08T10:38:04.010Z,12.45
2023-01-08T10:40:47.137Z,13.38
2023-01-08T10:43:26.235Z,12.65
2023-01-08T10:46:00.368Z,12.30
2023-01-08T10:48:51.513Z,11.05
2023-01-08T10:51:23.817Z,12.07
2023-01-08T10:53:53.026Z,12.05
2023-01-08T10:56:23.544Z,12.10
2023-01-08T10:58:53.438Z,10.75
2023-01-08T11:01:23.685Z,12.45
2023-01-08T11:03:54.191Z,12.60
2023-01-08T11:06:27.919Z,9.77
2023-01-08T11:08:59.740Z,14.45
2023-01-08T11:11:38.370Z,13.30
2023-01-08T11:14:35.231Z,13.98
2023-01-08T11:17:11.757Z,14.57
2023-01-08T11:19:40.121Z,14.45
2023-01-08T11:22:25.199Z,13.48
2023-01-08T11:24:53.596Z,16.80
2023-01-08T11:27:27.071Z,23.27
2023-01-08T11:30:06.455Z,21.13
2023-01-08T11:32:37.148Z,23.20
2023-01-08T11:35:13.750Z,25.45
2023-01-08T11:37:46.911Z,23.80
2023-01-08T11:40:39.422Z,25.65
2023-01-08T11:43:18.370Z,27.38
2023-01-08T11:45:57.886Z,25.80
2023-01-08T11:48:32.101Z,26.73
2023-01-08T11:51:19.101Z,24.15
2023-01-08T11:53:51.767Z,23.17
2023-01-08T11:56:44.319Z,21.90
2023-01-08T11:59:29.885Z,22.48
2023-01-08T12:02:19.065Z,21.35
2023-01-08T12:05:09.434Z,20.85
2023-01-08T12:08:02.517Z,20.70
2023-01-08T12:11:04.508Z,19.77
2023-01-08T12:14:13.791Z,22.42
2023-01-08T12:16:48.612Z,21.20
2023-01-08T12:20:01.789Z,22.83
2023-01-08T12:22:43.392Z,23.88
2023-01-08T12:25:26.417Z,21.88
2023-01-08T12:28:35.982Z,24.15
2023-01-08T12:31:33.890Z,27.23
2023-01-08T12:34:09.837Z,25.80
2023-01-08T12:36:42.869Z,27.30
2023-01-08T12:39:16.146Z,29.33
2023-01-08T12:41:45.594Z,30.25
2023-01-08T12:44:22.749Z,30.02
2023-01-08T12:46:52.056Z,29.42
2023-01-08T12:49:29.110Z,28.52
2023-01-08T12:52:07.632Z,29.05
2023-01-08T12:54:44.358Z,30.00
2023-01-08T12:57:25.305Z,33.03
2023-01-08T13:00:31.004Z,35.70
2023-01-08T13:03:02.700Z,33.10
2023-01-08T13:05:38.033Z,39.70
2023-01-08T13:08:29.827Z,34.78
2023-01-08T13:10:57.528Z,34.22
2023-01-08T13:13:34.294Z,36.00
2023-01-08T13:16:19.935Z,32.88
2023-01-08T13:18:56.864Z,32.97
2023-01-08T13:21:33.057Z,34.88
2023-01-08T13:24:06.940Z,28.98
2023-01-08T13:26:37.127Z,28.00
2023-01-08T13:29:23.849Z,26.00
2023-01-08T13:31:51.846Z,27.27
2023-01-08T13:34:22.730Z,26.40
2023-01-08T13:36:58.036Z,27.55
2023-01-08T13:39:36.730Z,28.77
2023-01-08T13:42:23.989Z,26.38
2023-01-08T13:44:57.813Z,29.85
2023-01-08T13:49:54.938Z,26.67
2023-01-08T13:52:43.474Z,24.52
2023-01-08T13:55:21.338Z,27.05
2023-01-08T13:57:55.080Z,26.20
2023-01-08T14:00:47.830Z,24.48
2023-01-08T14:03:28.495Z,25.27
2023-01-08T14:06:06.926Z,25.98
2023-01-08T14:08:34.938Z,26.92
2023-01-08T14:11:04.208Z,29.48
2023-01-08T14:13:35.790Z,27.83
2023-01-08T14:16:05.945Z,28.65
2023-01-08T14:18:34.547Z,27.33
2023-01-08T14:21:03.607Z,28.48
2023-01-08T14:23:46.467Z,30.83
2023-01-08T14:26:21.914Z,29.98
2023-01-08T14:28:53.919Z,36.65
2023-01-08T14:31:24.033Z,34.80
2023-01-08T14:33:53.568Z,35.13
2023-01-08T14:36:22.192Z,34.53
2023-01-08T14:38:52.992Z,37.25
2023-01-08T14:41:20.473Z,33.05
2023-01-08T14:43:50.025Z,42.22
2023-01-08T14:46:30.452Z,41.83
2023-01-08T14:48:58.612Z,40.83
2023-01-08T14:51:29.584Z,44.75
2023-01-08T14:54:03.667Z,41.65
2023-01-08T14:56:34.109Z,47.63
2023-01-08T14:59:08.468Z,44.97
2023-01-08T15:01:37.407Z,47.63
2023-01-08T15:04:17.992Z,47.95
2023-01-08T15:06:46.684Z,50.63
2023-01-08T15:09:34.620Z,47.50
2023-01-08T15:12:04.735Z,39.80
2023-01-08T15:14:37.433Z,45.58
2023-01-08T15:17:15.489Z,41.30
2023-01-08T15:19:49.634Z,43.90
2023-01-08T15:22:24.332Z,41.38
2023-01-08T15:25:03.187Z,38.67
2023-01-08T15:27:37.171Z,38.88
2023-01-08T15:30:09.256Z,33.80
2023-01-08T15:32:39.045Z,28.55
2023-01-08T15:35:18.750Z,26.83
2023-01-08T15:37:46.714Z,28.52
2023-01-08T15:40:14.564Z,25.42
2023-01-08T15:43:02.863Z,25.85
2023-01-08T15:45:33.924Z,26.77
2023-01-08T15:48:01.598Z,25.42
2023-01-08T15:50:32.560Z,23.42
2023-01-08T15:53:01.397Z,22.15
2023-01-08T15:55:28.888Z,23.42
2023-01-08T15:57:56.442Z,24.15
2023-01-08T16:00:24.330Z,22.45
2023-01-08T16:02:53.790Z,23.08
2023-01-08T16:05:24.288Z,24.27
2023-01-08T16:07:52.203Z,25.63
2023-01-08T16:10:20.340Z,28.90
2023-01-08T16:12:47.907Z,29.67
2023-01-08T16:15:16.018Z,32.47
2023-01-08T16:17:44.530Z,27.83
2023-01-08T16:20:13.933Z,28.42
2023-01-08T16:22:41.875Z,26.35
2023-01-08T16:25:09.900Z,28.02
2023-01-08T16:27:38.510Z,28.45
2023-01-08T16:30:08.237Z,24.70
2023-01-08T16:32:35.809Z,27.67
2023-01-08T16:35:03.483Z,25.85
2023-01-08T16:37:31.591Z,28.13
2023-01-08T16:39:59.045Z,29.10
2023-01-08T16:42:26.712Z,30.20
2023-01-08T16:44:54.138Z,31.25
2023-01-08T16:47:21.938Z,30.17
2023-01-08T16:49:50.609Z,29.35
2023-01-08T16:52:18.725Z,28.40
2023-01-08T16:54:47.554Z,28.73
2023-01-08T16:57:15.096Z,28.50
2023-01-08T16:59:42.768Z,30.48
2023-01-08T17:02:10.808Z,31.77
2023-01-08T17:04:38.516Z,33.58
2023-01-08T17:07:06.807Z,32.47
2023-01-08T17:09:34.404Z,32.70
2023-01-08T17:12:02.170Z,31.98
2023-01-08T17:14:29.736Z,35.42
2023-01-08T17:16:57.319Z,30.20
2023-01-08T17:19:24.703Z,33.90
2023-01-08T17:21:52.348Z,31.40
2023-01-08T17:24:19.999Z,33.25
2023-01-08T17:26:48.141Z,32.63
2023-01-08T17:29:15.583Z,31.42
2023-01-08T17:31:43.212Z,36.17
2023-01-08T17:34:14.226Z,39.00
2023-01-08T17:36:43.071Z,34.85
2023-01-08T17:39:12.522Z,35.78
2023-01-08T17:41:58.530Z,32.38
2023-01-08T17:44:26.649Z,33.88
2023-01-08T17:46:54.092Z,35.13
2023-01-08T17:49:21.650Z,38.00
2023-01-08T17:51:49.119Z,39.22
2023-01-08T17:54:17.361Z,34.70
2023-01-08T17:56:45.012Z,33.10
2023-01-08T17:59:17.879Z,36.60
2023-01-08T18:01:46.189Z,36.43
2023-01-08T18:04:14.829Z,37.70
2023-01-08T18:06:43.249Z,38.22
2023-01-08T18:09:12.621Z,38.88
2023-01-08T18:11:41.904Z,38.97
2023-01-08T18:14:12.045Z,40.45
2023-01-08T18:16:40.430Z,37.45
2023-01-08T18:19:08.419Z,35.08
2023-01-08T18:21:35.979Z,37.55
2023-01-08T18:24:03.640Z,34.90
2023-01-08T18:26:31.257Z,37.45
2023-01-08T18:28:58.739Z,33.17
2023-01-08T18:31:26.406Z,36.42
2023-01-08T18:33:53.827Z,34.50
2023-01-08T18:36:22.405Z,35.67
2023-01-08T18:38:51.089Z,35.78
2023-01-08T18:41:39.338Z,36.97
2023-01-08T18:44:08.224Z,40.58
2023-01-08T18:46:36.022Z,41.78
2023-01-08T18:49:04.267Z,40.55
2023-01-08T18:51:31.748Z,38.30
2023-01-08T18:53:59.728Z,38.90
2023-01-08T18:56:30.474Z,39.80
2023-01-08T18:58:58.472Z,40.97
2023-01-08T19:01:26.583Z,45.72
2023-01-08T19:03:55.799Z,45.30
2023-01-08T19:06:24.495Z,41.28
2023-01-08T19:08:52.456Z,41.35
2023-01-08T19:11:20.430Z,42.58
2023-01-08T19:13:48.027Z,43.58
2023-01-08T19:16:18.914Z,39.92
2023-01-08T19:18:46.546Z,42.92
2023-01-08T19:21:14.993Z,43.22
2023-01-08T19:23:42.599Z,42.67
2023-01-08T19:26:10.408Z,42.28
2023-01-08T19:28:38.408Z,42.42
2023-01-08T19:31:06.017Z,41.40
2023-01-08T19:33:33.664Z,41.95
2023-01-08T19:36:08.840Z,43.03
2023-01-08T19:38:36.419Z,45.50
2023-01-08T19:41:04.441Z,42.33
2023-01-08T19:43:44.175Z,44.65
2023-01-08T19:46:18.609Z,42.85
2023-01-08T19:48:46.117Z,45.83
2023-01-08T19:51:14.023Z,44.05
2023-01-08T19:53:41.788Z,43.78
2023-01-08T19:56:12.008Z,45.22
2023-01-08T19:58:39.899Z,47.95
2023-01-08T20:01:15.313Z,43.10
2023-01-08T20:03:43.888Z,43.53
2023-01-08T20:06:20.357Z,39.22
2023-01-08T20:08:54.280Z,40.40
2023-01-08T20:11:22.806Z,43.13
2023-01-08T20:13:51.074Z,41.65
2023-01-08T20:16:20.754Z,38.17
2023-01-08T20:18:48.655Z,42.35
2023-01-08T20:21:21.086Z,38.40
2023-01-08T20:23:49.065Z,36.40
2023-01-08T20:26:18.677Z,38.95
2023-01-08T20:28:47.012Z,39.85
2023-01-08T20:31:20.579Z,38.63
2023-01-08T20:33:48.941Z,34.15
2023-01-08T20:36:19.833Z,36.10
2023-01-08T20:38:51.566Z,33.03
2023-01-08T20:41:19.418Z,32.92
2023-01-08T20:43:47.885Z,34.25
2023-01-08T20:46:16.152Z,36.92
2023-01-08T20:48:47.856Z,33.42
2023-01-08T20:51:16.140Z,35.67
2023-01-08T20:53:43.673Z,32.70
2023-01-08T20:56:13.295Z,35.45
2023-01-08T20:58:43.564Z,35.35
2023-01-08T21:01:17.259Z,34.38
2023-01-08T21:06:16.188Z,34.53
2023-01-08T21:08:45.906Z,32.35
2023-01-08T21:11:14.193Z,37.10
2023-01-08T21:13:42.349Z,33.60
2023-01-08T21:16:14.297Z,31.25
2023-01-08T21:18:47.190Z,33.67
2023-01-08T21:21:28.763Z,32.70
2023-01-08T21:23:57.275Z,31.20
2023-01-08T21:26:24.999Z,32.50
2023-01-08T21:28:53.188Z,31.80
2023-01-08T21:31:23.399Z,32.67
2023-01-08T21:33:51.535Z,30.77
2023-01-08T21:36:21.872Z,27.35
2023-01-08T21:38:49.956Z,31.08
2023-01-08T21:41:40.727Z,30.27
2023-01-08T21:44:33.494Z,28.33
2023-01-08T21:47:01.993Z,31.15
2023-01-08T21:49:29.692Z,33.47
2023-01-08T21:52:15.624Z,30.92
2023-01-08T21:54:43.706Z,31.77
2023-01-08T21:57:11.291Z,32.35
2023-01-08T21:59:38.829Z,31.88
2023-01-08T22:02:06.804Z,33.08
2023-01-08T22:04:34.324Z,34.05
2023-01-08T22:07:02.396Z,30.65
2023-01-08T22:09:30.172Z,27.05
2023-01-08T22:11:57.677Z,30.77
2023-01-08T22:14:25.227Z,30.88
2023-01-08T22:16:52.718Z,33.45
2023-01-08T22:19:20.780Z,30.55
2023-01-08T22:21:48.198Z,35.95
2023-01-08T22:24:15.757Z,33.42
2023-01-08T22:26:43.327Z,32.78
2023-01-08T22:29:10.777Z,31.25
2023-01-08T22:31:38.339Z,33.97
2023-01-08T22:34:05.734Z,36.30
2023-01-08T22:36:33.719Z,34.08
2023-01-08T22:39:01.218Z,33.80
2023-01-08T22:41:28.680Z,33.53
2023-01-08T22:43:57.188Z,35.35
2023-01-08T22:46:25.292Z,34.50
2023-01-08T22:48:53.139Z,36.75
2023-01-08T22:51:27.777Z,39.20
2023-01-08T22:53:57.042Z,40.05
2023-01-08T22:56:25.259Z,36.78
2023-01-08T22:58:53.242Z,35.35
2023-01-08T23:01:23.928Z,40.00
2023-01-08T23:03:57.094Z,39.42
2023-01-08T23:06:26.930Z,38.97
2023-01-08T23:08:55.500Z,36.00
2023-01-08T23:11:24.299Z,33.78
2023-01-08T23:13:51.979Z,35.45
2023-01-08T23:16:24.316Z,35.47
2023-01-08T23:18:54.239Z,39.78
2023-01-08T23:21:23.952Z,38.15
2023-01-08T23:23:52.302Z,36.53
2023-01-08T23:26:23.377Z,37.50
2023-01-08T23:28:52.735Z,37.85
2023-01-08T23:31:24.208Z,36.53
2023-01-08T23:33:52.701Z,31.73
2023-01-08T23:36:21.517Z,33.97
2023-01-08T23:38:54.298Z,32.25
2023-01-08T23:41:33.055Z,30.52
2023-01-08T23:44:08.007Z,28.98
2023-01-08T23:46:35.672Z,29.13
2023-01-08T23:49:03.684Z,27.02
2023-01-08T23:51:31.256Z,30.50
2023-01-08T23:53:59.400Z,32.38
2023-01-08T23:56:28.120Z,28.55
2023-01-08T23:58:55.652Z,26.75
